createdAt,value
2018-09-26T00:00:32.071Z,0
2018-09-26T00:01:36.710Z,0
2018-09-26T00:02:41.881Z,0
2018-09-26T00:03:47.106Z,0
2018-09-26T00:04:52.531Z,0
2018-09-26T00:05:57.719Z,0
2018-09-26T00:07:02.989Z,0
2018-09-26T00:08:08.423Z,0
2018-09-26T00:09:13.969Z,0
2018-09-26T00:10:19.085Z,0
2018-09-26T00:11:24.233Z,0
2018-09-26T00:12:29.885Z,0
2018-09-26T00:13:35.030Z,0
2018-09-26T00:14:40.533Z,0
2018-09-26T00:15:46.013Z,0
2018-09-26T00:16:50.888Z,0
2018-09-26T00:17:55.474Z,0
2018-09-26T00:19:00.879Z,0
2018-09-26T00:20:06.061Z,0
2018-09-26T00:21:11.496Z,0
2018-09-26T00:22:17.380Z,0
2018-09-26T00:23:21.712Z,0
2018-09-26T00:24:41.676Z,0
2018-09-26T00:25:47.109Z,0
2018-09-26T00:26:52.539Z,0
2018-09-26T00:27:58.350Z,0
2018-09-26T00:29:03.551Z,0
2018-09-26T00:30:08.707Z,0
2018-09-26T00:31:14.005Z,0
2018-09-26T00:32:19.450Z,0
2018-09-26T00:33:24.320Z,0
2018-09-26T00:34:30.269Z,0
2018-09-26T00:35:35.414Z,0
2018-09-26T00:36:40.582Z,0
2018-09-26T00:37:46.337Z,0
2018-09-26T00:38:51.774Z,0
2018-09-26T00:39:57.236Z,0
2018-09-26T00:41:02.459Z,0
2018-09-26T00:42:07.887Z,0
2018-09-26T00:43:13.365Z,0
2018-09-26T00:44:18.664Z,0
2018-09-26T00:45:24.112Z,0
2018-09-26T00:46:44.453Z,0
2018-09-26T00:47:49.883Z,0
2018-09-26T00:48:54.869Z,0
2018-09-26T00:50:00.322Z,0
2018-09-26T00:51:05.753Z,0
2018-09-26T00:52:10.999Z,0
2018-09-26T00:53:16.175Z,0
2018-09-26T00:54:21.605Z,0
2018-09-26T00:55:41.393Z,0
2018-09-26T00:56:46.840Z,0
2018-09-26T00:57:52.237Z,0
2018-09-26T00:58:57.677Z,0
2018-09-26T01:00:02.549Z,0
2018-09-26T01:01:07.116Z,0
2018-09-26T01:02:12.014Z,0
2018-09-26T01:03:17.493Z,0
2018-09-26T01:04:23.222Z,0
2018-09-26T01:05:28.424Z,0
2018-09-26T01:06:34.250Z,0
2018-09-26T01:07:39.780Z,0
2018-09-26T01:08:44.938Z,0
2018-09-26T01:09:50.683Z,0
2018-09-26T01:10:56.250Z,0
2018-09-26T01:12:01.707Z,0
2018-09-26T01:13:06.878Z,0
2018-09-26T01:14:11.845Z,0
2018-09-26T01:15:17.356Z,0
2018-09-26T01:16:22.749Z,0
2018-09-26T01:17:28.243Z,0
2018-09-26T01:18:34.131Z,0
2018-09-26T01:19:39.435Z,0
2018-09-26T01:20:44.692Z,0
2018-09-26T01:21:50.188Z,0
2018-09-26T01:22:55.669Z,0
2018-09-26T01:24:00.605Z,0
2018-09-26T01:25:06.344Z,0
2018-09-26T01:26:11.300Z,0
2018-09-26T01:27:16.179Z,0
2018-09-26T01:28:21.935Z,0
2018-09-26T01:29:26.861Z,0
2018-09-26T01:30:32.682Z,0
2018-09-26T01:31:38.362Z,0
2018-09-26T01:32:43.820Z,0
2018-09-26T01:33:49.067Z,0
2018-09-26T01:34:54.207Z,0
2018-09-26T01:35:59.410Z,0
2018-09-26T01:37:05.091Z,0
2018-09-26T01:38:10.535Z,0
2018-09-26T01:39:16.034Z,0
2018-09-26T01:40:21.731Z,0
2018-09-26T01:41:27.109Z,0
2018-09-26T01:42:32.737Z,0
2018-09-26T01:43:37.880Z,0
2018-09-26T01:44:42.579Z,0
2018-09-26T01:45:47.708Z,0
2018-09-26T01:46:52.573Z,0
2018-09-26T01:47:57.438Z,0
2018-09-26T01:49:02.584Z,0
2018-09-26T01:50:07.817Z,0
2018-09-26T01:51:13.251Z,0
2018-09-26T01:52:18.685Z,0
2018-09-26T01:53:23.841Z,0
2018-09-26T01:54:29.448Z,0
2018-09-26T01:55:34.597Z,0
2018-09-26T01:56:39.729Z,0
2018-09-26T01:57:45.657Z,0
2018-09-26T01:58:51.219Z,0
2018-09-26T01:59:55.839Z,0
2018-09-26T02:01:01.248Z,0
2018-09-26T02:02:05.925Z,0
2018-09-26T02:03:11.386Z,0
2018-09-26T02:04:16.795Z,0
2018-09-26T02:05:22.263Z,0
2018-09-26T02:06:27.870Z,0
2018-09-26T02:07:32.736Z,0
2018-09-26T02:08:38.241Z,0
2018-09-26T02:09:43.950Z,0
2018-09-26T02:10:48.808Z,0
2018-09-26T02:11:53.986Z,0
2018-09-26T02:12:58.842Z,0
2018-09-26T02:14:03.699Z,0
2018-09-26T02:15:08.870Z,0
2018-09-26T02:16:14.811Z,0
2018-09-26T02:17:20.273Z,0
2018-09-26T02:18:40.960Z,0
2018-09-26T02:19:46.501Z,0
2018-09-26T02:20:52.037Z,0
2018-09-26T02:21:57.938Z,0
2018-09-26T02:23:02.801Z,0
2018-09-26T02:24:08.260Z,0
2018-09-26T02:25:13.178Z,0
2018-09-26T02:26:18.067Z,0
2018-09-26T02:27:23.539Z,0
2018-09-26T02:28:29.127Z,0
2018-09-26T02:29:34.276Z,0
2018-09-26T02:30:39.875Z,0
2018-09-26T02:31:45.293Z,0
2018-09-26T02:32:50.725Z,0
2018-09-26T02:33:56.278Z,0
2018-09-26T02:35:01.749Z,0
2018-09-26T02:36:06.746Z,0
2018-09-26T02:37:12.244Z,0
2018-09-26T02:38:17.702Z,0
2018-09-26T02:39:22.595Z,0
2018-09-26T02:40:28.027Z,0
2018-09-26T02:41:33.226Z,0
2018-09-26T02:42:39.055Z,0
2018-09-26T02:43:44.484Z,0
2018-09-26T02:44:50.019Z,0
2018-09-26T02:45:55.848Z,0
2018-09-26T02:47:01.035Z,0
2018-09-26T02:48:05.710Z,0
2018-09-26T02:49:11.248Z,0
2018-09-26T02:50:16.678Z,0
2018-09-26T02:51:21.607Z,0
2018-09-26T02:52:27.166Z,0
2018-09-26T02:53:32.360Z,0
2018-09-26T02:54:37.983Z,0
2018-09-26T02:55:43.645Z,0
2018-09-26T02:56:49.179Z,0
2018-09-26T02:57:54.069Z,0
2018-09-26T02:58:59.249Z,0
2018-09-26T03:00:03.587Z,0
2018-09-26T03:01:09.051Z,0
2018-09-26T03:02:14.484Z,0
2018-09-26T03:03:19.628Z,0
2018-09-26T03:04:25.478Z,0
2018-09-26T03:05:30.884Z,0
2018-09-26T03:06:36.580Z,0
2018-09-26T03:07:42.033Z,0
2018-09-26T03:08:47.477Z,0
2018-09-26T03:09:53.221Z,0
2018-09-26T03:10:58.478Z,0
2018-09-26T03:12:04.323Z,0
2018-09-26T03:13:10.183Z,0
2018-09-26T03:14:15.050Z,0
2018-09-26T03:15:20.533Z,0
2018-09-26T03:16:25.731Z,0
2018-09-26T03:17:31.343Z,0
2018-09-26T03:18:37.424Z,0
2018-09-26T03:19:42.859Z,0
2018-09-26T03:20:48.302Z,0
2018-09-26T03:21:53.875Z,0
2018-09-26T03:22:59.397Z,0
2018-09-26T03:24:04.253Z,0
2018-09-26T03:25:10.518Z,0
2018-09-26T03:26:15.461Z,0
2018-09-26T03:27:20.615Z,0
2018-09-26T03:28:26.175Z,0
2018-09-26T03:29:31.330Z,0
2018-09-26T03:30:36.750Z,0
2018-09-26T03:31:41.718Z,0
2018-09-26T03:32:46.985Z,0
2018-09-26T03:33:53.176Z,0
2018-09-26T03:34:58.132Z,0
2018-09-26T03:36:03.346Z,0
2018-09-26T03:37:08.770Z,0
2018-09-26T03:38:14.284Z,0
2018-09-26T03:39:19.749Z,0
2018-09-26T03:40:25.523Z,0
2018-09-26T03:41:30.873Z,0
2018-09-26T03:42:36.652Z,0
2018-09-26T03:43:42.080Z,0
2018-09-26T03:44:47.303Z,0
2018-09-26T03:45:52.239Z,0
2018-09-26T03:46:57.376Z,0
2018-09-26T03:48:02.786Z,0
2018-09-26T03:49:08.477Z,0
2018-09-26T03:50:13.086Z,0
2018-09-26T03:51:18.236Z,0
2018-09-26T03:52:23.634Z,0
2018-09-26T03:53:28.854Z,0
2018-09-26T03:54:34.476Z,0
2018-09-26T03:55:39.618Z,0
2018-09-26T03:56:44.844Z,0
2018-09-26T03:57:50.834Z,0
2018-09-26T03:58:56.267Z,0
2018-09-26T04:00:01.156Z,0
2018-09-26T04:01:06.801Z,0
2018-09-26T04:02:11.660Z,0
2018-09-26T04:03:16.815Z,0
2018-09-26T04:04:22.524Z,0
2018-09-26T04:05:28.229Z,0
2018-09-26T04:06:33.460Z,0
2018-09-26T04:07:38.392Z,0
2018-09-26T04:08:43.821Z,0
2018-09-26T04:09:48.647Z,0
2018-09-26T04:10:53.828Z,0
2018-09-26T04:11:58.701Z,0
2018-09-26T04:13:04.458Z,0
2018-09-26T04:14:09.823Z,0
2018-09-26T04:15:14.712Z,0
2018-09-26T04:16:20.398Z,0
2018-09-26T04:17:25.829Z,0
2018-09-26T04:18:31.280Z,0
2018-09-26T04:19:36.424Z,0
2018-09-26T04:20:41.309Z,0
2018-09-26T04:21:46.903Z,0
2018-09-26T04:22:52.068Z,0
2018-09-26T04:23:56.648Z,0
2018-09-26T04:25:01.483Z,0
2018-09-26T04:26:06.917Z,0
2018-09-26T04:27:12.791Z,0
2018-09-26T04:28:19.373Z,0
2018-09-26T04:29:24.816Z,0
2018-09-26T04:30:30.444Z,0
2018-09-26T04:31:36.153Z,0
2018-09-26T04:32:42.281Z,0
2018-09-26T04:33:48.491Z,0
2018-09-26T04:34:53.843Z,0
2018-09-26T04:35:58.714Z,0
2018-09-26T04:37:04.168Z,0
2018-09-26T04:38:09.051Z,0
2018-09-26T04:39:14.007Z,0
2018-09-26T04:40:19.900Z,0
2018-09-26T04:41:24.784Z,0
2018-09-26T04:42:30.531Z,0
2018-09-26T04:43:35.672Z,0
2018-09-26T04:44:41.154Z,0
2018-09-26T04:45:46.675Z,0
2018-09-26T04:46:52.115Z,0
2018-09-26T04:47:57.584Z,0
2018-09-26T04:49:02.776Z,0
2018-09-26T04:50:08.211Z,0
2018-09-26T04:51:13.353Z,0
2018-09-26T04:52:18.797Z,0
2018-09-26T04:53:23.936Z,0
2018-09-26T04:54:29.586Z,0
2018-09-26T04:55:34.793Z,0
2018-09-26T04:56:39.973Z,0
2018-09-26T04:57:45.838Z,0
2018-09-26T04:58:51.169Z,0
2018-09-26T04:59:56.046Z,0
2018-09-26T05:01:01.275Z,0
2018-09-26T05:02:05.861Z,0
2018-09-26T05:03:10.736Z,0
2018-09-26T05:04:16.149Z,0
2018-09-26T05:05:21.699Z,0
2018-09-26T05:06:27.250Z,0
2018-09-26T05:07:32.763Z,0
2018-09-26T05:08:37.500Z,0
2018-09-26T05:09:43.001Z,0
2018-09-26T05:10:48.462Z,0
2018-09-26T05:11:53.096Z,0
2018-09-26T05:12:58.691Z,0
2018-09-26T05:14:03.325Z,0
2018-09-26T05:15:08.853Z,0
2018-09-26T05:16:14.540Z,0
2018-09-26T05:17:20.034Z,0
2018-09-26T05:19:45.189Z,0
2018-09-26T05:20:50.628Z,0
2018-09-26T05:21:56.223Z,0
2018-09-26T05:23:01.515Z,0
2018-09-26T05:24:06.192Z,0
2018-09-26T05:25:11.786Z,0
2018-09-26T05:26:16.973Z,0
2018-09-26T05:27:22.518Z,0
2018-09-26T05:28:42.283Z,0
2018-09-26T05:29:47.813Z,0
2018-09-26T05:30:53.002Z,0
2018-09-26T05:31:58.152Z,0
2018-09-26T05:33:02.793Z,0
2018-09-26T05:34:08.223Z,0
2018-09-26T05:35:13.729Z,0
2018-09-26T05:36:18.312Z,0
2018-09-26T05:37:23.821Z,0
2018-09-26T05:38:28.841Z,0
2018-09-26T05:39:34.262Z,0
2018-09-26T05:40:39.186Z,0
2018-09-26T05:41:44.714Z,6
2018-09-26T05:42:50.464Z,6
2018-09-26T05:43:55.337Z,6
2018-09-26T05:45:00.542Z,6
2018-09-26T05:46:05.957Z,6
2018-09-26T05:47:11.406Z,6
2018-09-26T05:48:16.906Z,6
2018-09-26T05:49:22.375Z,6
2018-09-26T05:50:27.807Z,0
2018-09-26T05:51:33.638Z,0
2018-09-26T05:52:39.117Z,0
2018-09-26T05:53:44.259Z,0
2018-09-26T05:54:49.693Z,0
2018-09-26T05:55:54.857Z,6
2018-09-26T05:57:00.293Z,6
2018-09-26T05:58:05.427Z,6
2018-09-26T05:59:10.736Z,6
2018-09-26T06:00:16.337Z,6
2018-09-26T06:01:22.169Z,6
2018-09-26T06:02:27.393Z,6
2018-09-26T06:03:33.165Z,6
2018-09-26T06:04:38.362Z,6
2018-09-26T06:05:43.331Z,6
2018-09-26T06:06:48.734Z,6
2018-09-26T06:07:53.989Z,6
2018-09-26T06:08:59.231Z,6
2018-09-26T06:10:04.623Z,6
2018-09-26T06:11:09.539Z,6
2018-09-26T06:12:14.111Z,6
2018-09-26T06:13:19.531Z,6
2018-09-26T06:14:24.630Z,6
2018-09-26T06:15:30.465Z,6
2018-09-26T06:16:35.335Z,6
2018-09-26T06:17:40.519Z,6
2018-09-26T06:18:46.302Z,6
2018-09-26T06:19:51.179Z,6
2018-09-26T06:20:56.047Z,6
2018-09-26T06:22:01.237Z,6
2018-09-26T06:23:06.419Z,6
2018-09-26T06:24:11.879Z,24
2018-09-26T06:25:17.959Z,24
2018-09-26T06:26:23.403Z,24
2018-09-26T06:27:29.221Z,24
2018-09-26T06:28:34.425Z,24
2018-09-26T06:29:39.849Z,24
2018-09-26T06:30:45.274Z,24
2018-09-26T06:31:50.139Z,24
2018-09-26T06:32:55.301Z,24
2018-09-26T06:34:00.793Z,24
2018-09-26T06:35:06.259Z,24
2018-09-26T06:36:11.855Z,24
2018-09-26T06:37:17.683Z,24
2018-09-26T06:38:22.838Z,40
2018-09-26T06:39:28.034Z,40
2018-09-26T06:40:33.432Z,40
2018-09-26T06:41:38.209Z,40
2018-09-26T06:42:43.646Z,40
2018-09-26T06:43:49.149Z,40
2018-09-26T06:44:54.289Z,13
2018-09-26T06:45:59.967Z,13
2018-09-26T06:47:05.311Z,13
2018-09-26T06:48:10.488Z,13
2018-09-26T06:49:15.629Z,31
2018-09-26T06:50:20.947Z,31
2018-09-26T06:51:41.157Z,31
2018-09-26T06:52:46.332Z,31
2018-09-26T06:53:51.696Z,31
2018-09-26T06:54:57.405Z,31
2018-09-26T06:56:02.570Z,31
2018-09-26T06:57:07.722Z,31
2018-09-26T06:58:13.307Z,48
2018-09-26T06:59:18.462Z,48
2018-09-26T07:00:23.969Z,48
2018-09-26T07:01:29.443Z,48
2018-09-26T07:02:34.422Z,48
2018-09-26T07:03:40.132Z,48
2018-09-26T07:04:45.080Z,37
2018-09-26T07:05:50.472Z,37
2018-09-26T07:06:55.925Z,37
2018-09-26T07:08:00.592Z,37
2018-09-26T07:09:06.029Z,37
2018-09-26T07:10:11.436Z,37
2018-09-26T07:11:16.876Z,55
2018-09-26T07:12:22.035Z,55
2018-09-26T07:13:28.239Z,55
2018-09-26T07:14:33.688Z,55
2018-09-26T07:15:39.425Z,55
2018-09-26T07:16:44.374Z,55
2018-09-26T07:17:49.543Z,55
2018-09-26T07:18:54.942Z,55
2018-09-26T07:20:00.417Z,55
2018-09-26T07:21:05.353Z,55
2018-09-26T07:22:11.952Z,55
2018-09-26T07:23:17.108Z,55
2018-09-26T07:24:22.536Z,55
2018-09-26T07:25:28.317Z,55
2018-09-26T07:26:33.920Z,55
2018-09-26T07:27:39.860Z,55
2018-09-26T07:28:44.716Z,72
2018-09-26T07:29:50.154Z,55
2018-09-26T07:30:55.613Z,55
2018-09-26T07:32:01.283Z,72
2018-09-26T07:33:06.531Z,55
2018-09-26T07:34:12.001Z,72
2018-09-26T07:35:16.890Z,72
2018-09-26T07:36:22.334Z,72
2018-09-26T07:37:42.114Z,72
2018-09-26T07:38:47.303Z,44
2018-09-26T07:39:52.743Z,44
2018-09-26T07:40:58.349Z,62
2018-09-26T07:42:03.248Z,72
2018-09-26T07:43:08.400Z,72
2018-09-26T07:44:13.873Z,72
2018-09-26T07:45:19.199Z,72
2018-09-26T07:46:25.135Z,72
2018-09-26T07:47:30.333Z,72
2018-09-26T07:48:35.535Z,72
2018-09-26T07:49:40.693Z,72
2018-09-26T07:50:46.188Z,72
2018-09-26T07:51:51.658Z,72
2018-09-26T07:52:56.892Z,72
2018-09-26T07:54:01.871Z,72
2018-09-26T07:55:07.385Z,72
2018-09-26T07:56:12.539Z,72
2018-09-26T07:57:18.022Z,72
2018-09-26T07:58:23.720Z,72
2018-09-26T07:59:29.146Z,72
2018-09-26T08:00:35.161Z,72
2018-09-26T08:01:40.740Z,72
2018-09-26T08:02:45.958Z,72
2018-09-26T08:03:50.801Z,72
2018-09-26T08:04:55.110Z,72
2018-09-26T08:06:00.724Z,72
2018-09-26T08:07:06.540Z,72
2018-09-26T08:08:11.539Z,72
2018-09-26T08:09:16.958Z,72
2018-09-26T08:10:22.359Z,72
2018-09-26T08:11:28.637Z,44
2018-09-26T08:12:34.638Z,62
2018-09-26T08:13:40.144Z,62
2018-09-26T08:14:45.304Z,62
2018-09-26T08:15:50.761Z,62
2018-09-26T08:16:55.892Z,62
2018-09-26T08:18:00.563Z,62
2018-09-26T08:19:05.739Z,62
2018-09-26T08:20:10.501Z,62
2018-09-26T08:21:15.692Z,62
2018-09-26T08:22:21.192Z,62
2018-09-26T08:23:26.977Z,62
2018-09-26T08:24:32.184Z,62
2018-09-26T08:25:37.192Z,62
2018-09-26T08:26:42.379Z,79
2018-09-26T08:27:47.807Z,79
2018-09-26T08:28:53.001Z,79
2018-09-26T08:29:58.864Z,79
2018-09-26T08:31:04.330Z,62
2018-09-26T08:32:09.582Z,62
2018-09-26T08:33:14.445Z,62
2018-09-26T08:34:19.572Z,79
2018-09-26T08:35:24.531Z,79
2018-09-26T08:36:30.469Z,79
2018-09-26T08:37:35.834Z,79
2018-09-26T08:38:40.983Z,79
2018-09-26T08:39:46.519Z,62
2018-09-26T08:40:51.384Z,79
2018-09-26T08:41:56.243Z,62
2018-09-26T08:43:02.551Z,79
2018-09-26T08:44:07.730Z,95
2018-09-26T08:45:12.650Z,68
2018-09-26T08:46:18.151Z,86
2018-09-26T08:47:23.004Z,86
2018-09-26T08:48:28.315Z,86
2018-09-26T08:49:33.570Z,86
2018-09-26T08:50:38.712Z,86
2018-09-26T08:51:44.535Z,86
2018-09-26T08:52:49.688Z,68
2018-09-26T08:53:55.575Z,68
2018-09-26T08:55:01.282Z,68
2018-09-26T08:56:06.475Z,68
2018-09-26T08:57:11.343Z,95
2018-09-26T08:58:16.795Z,95
2018-09-26T08:59:21.689Z,95
2018-09-26T09:00:42.069Z,95
2018-09-26T09:01:47.601Z,95
2018-09-26T09:02:52.850Z,95
2018-09-26T09:03:58.596Z,95
2018-09-26T09:05:03.737Z,95
2018-09-26T09:06:09.010Z,95
2018-09-26T09:07:14.855Z,95
2018-09-26T09:08:20.005Z,95
2018-09-26T09:10:45.253Z,95
2018-09-26T09:11:50.395Z,79
2018-09-26T09:12:56.107Z,79
2018-09-26T09:14:00.842Z,79
2018-09-26T09:15:06.059Z,79
2018-09-26T09:16:10.817Z,79
2018-09-26T09:17:15.708Z,95
2018-09-26T09:18:21.136Z,86
2018-09-26T09:19:26.196Z,86
2018-09-26T09:20:31.345Z,68
2018-09-26T09:21:37.031Z,86
2018-09-26T09:22:42.456Z,86
2018-09-26T09:23:47.409Z,86
2018-09-26T09:24:52.250Z,86
2018-09-26T09:25:57.229Z,86
2018-09-26T09:27:02.154Z,86
2018-09-26T09:28:08.053Z,86
2018-09-26T09:29:13.031Z,86
2018-09-26T09:30:18.412Z,86
2018-09-26T09:31:23.269Z,86
2018-09-26T09:32:28.265Z,86
2018-09-26T09:33:33.996Z,79
2018-09-26T09:34:39.392Z,79
2018-09-26T09:35:43.778Z,79
2018-09-26T09:36:48.957Z,95
2018-09-26T09:37:54.421Z,68
2018-09-26T09:38:59.574Z,79
2018-09-26T09:40:04.594Z,79
2018-09-26T09:41:10.063Z,68
2018-09-26T09:42:15.215Z,68
2018-09-26T09:43:20.378Z,79
2018-09-26T09:44:26.238Z,95
2018-09-26T09:45:32.108Z,95
2018-09-26T09:46:37.270Z,95
2018-09-26T09:47:42.551Z,79
2018-09-26T09:48:47.713Z,68
2018-09-26T09:49:52.963Z,95
2018-09-26T09:50:58.419Z,68
2018-09-26T09:52:04.594Z,86
2018-09-26T09:53:09.736Z,68
2018-09-26T09:54:14.538Z,86
2018-09-26T09:55:19.942Z,68
2018-09-26T09:56:25.235Z,68
2018-09-26T09:57:31.098Z,68
2018-09-26T09:58:36.333Z,68
2018-09-26T09:59:41.990Z,68
2018-09-26T10:00:47.767Z,86
2018-09-26T10:01:52.909Z,68
2018-09-26T10:02:59.020Z,86
2018-09-26T10:04:05.753Z,86
2018-09-26T10:05:10.698Z,86
2018-09-26T10:06:16.175Z,68
2018-09-26T10:07:21.592Z,68
2018-09-26T10:08:27.338Z,68
2018-09-26T10:09:32.914Z,68
2018-09-26T10:10:38.054Z,68
2018-09-26T10:11:43.339Z,95
2018-09-26T10:12:48.948Z,95
2018-09-26T10:13:54.379Z,79
2018-09-26T10:14:59.590Z,79
2018-09-26T10:16:05.289Z,79
2018-09-26T10:17:09.890Z,95
2018-09-26T10:18:15.326Z,95
2018-09-26T10:19:20.186Z,95
2018-09-26T10:20:26.173Z,95
2018-09-26T10:21:31.507Z,95
2018-09-26T10:22:36.966Z,95
2018-09-26T10:23:42.420Z,95
2018-09-26T10:24:48.137Z,68
2018-09-26T10:25:53.735Z,68
2018-09-26T10:26:59.214Z,95
2018-09-26T10:28:04.783Z,95
2018-09-26T10:29:09.384Z,79
2018-09-26T10:30:14.973Z,79
2018-09-26T10:31:20.415Z,79
2018-09-26T10:32:25.885Z,95
2018-09-26T10:33:31.624Z,68
2018-09-26T10:34:36.499Z,68
2018-09-26T10:35:41.978Z,79
2018-09-26T10:37:02.240Z,95
2018-09-26T10:38:07.467Z,95
2018-09-26T10:39:12.979Z,95
2018-09-26T10:40:18.453Z,68
2018-09-26T10:41:23.590Z,68
2018-09-26T10:42:43.942Z,68
2018-09-26T10:43:49.092Z,95
2018-09-26T10:44:54.301Z,95
2018-09-26T10:45:59.474Z,79
2018-09-26T10:47:03.902Z,62
2018-09-26T10:48:09.394Z,62
2018-09-26T10:49:14.941Z,62
2018-09-26T10:50:20.454Z,62
2018-09-26T10:51:41.296Z,79
2018-09-26T10:52:46.439Z,79
2018-09-26T10:53:50.755Z,79
2018-09-26T10:54:56.009Z,79
2018-09-26T10:56:01.148Z,79
2018-09-26T10:57:06.377Z,79
2018-09-26T10:58:11.946Z,79
2018-09-26T10:59:17.406Z,79
2018-09-26T11:00:22.618Z,79
2018-09-26T11:01:28.421Z,79
2018-09-26T11:02:33.781Z,79
2018-09-26T11:03:39.274Z,79
2018-09-26T11:04:44.172Z,79
2018-09-26T11:05:49.088Z,79
2018-09-26T11:06:54.543Z,79
2018-09-26T11:07:59.973Z,79
2018-09-26T11:09:05.173Z,79
2018-09-26T11:10:10.340Z,95
2018-09-26T11:11:15.023Z,95
2018-09-26T11:12:20.173Z,68
2018-09-26T11:13:25.210Z,86
2018-09-26T11:14:31.900Z,68
2018-09-26T11:15:37.286Z,79
2018-09-26T11:16:42.719Z,79
2018-09-26T11:17:48.170Z,79
2018-09-26T11:18:54.049Z,79
2018-09-26T11:19:59.352Z,79
2018-09-26T11:21:04.859Z,79
2018-09-26T11:22:11.029Z,79
2018-09-26T11:23:16.912Z,95
2018-09-26T11:24:22.068Z,79
2018-09-26T11:25:28.199Z,79
2018-09-26T11:26:33.300Z,79
2018-09-26T11:27:38.854Z,95
2018-09-26T11:28:44.318Z,68
2018-09-26T11:29:49.206Z,68
2018-09-26T11:30:54.982Z,68
2018-09-26T11:32:00.707Z,68
2018-09-26T11:33:06.227Z,68
2018-09-26T11:34:11.853Z,68
2018-09-26T11:35:17.496Z,86
2018-09-26T11:36:22.658Z,86
2018-09-26T11:37:28.269Z,68
2018-09-26T11:38:33.788Z,68
2018-09-26T11:39:39.345Z,95
2018-09-26T11:40:44.867Z,79
2018-09-26T11:41:50.300Z,79
2018-09-26T11:42:56.040Z,79
2018-09-26T11:44:00.907Z,62
2018-09-26T11:45:06.090Z,62
2018-09-26T11:46:10.421Z,62
2018-09-26T11:47:16.002Z,62
2018-09-26T11:48:21.226Z,62
2018-09-26T11:49:26.706Z,79
2018-09-26T11:50:31.926Z,79
2018-09-26T11:51:37.778Z,79
2018-09-26T11:52:43.237Z,79
2018-09-26T11:53:48.922Z,79
2018-09-26T11:54:54.416Z,79
2018-09-26T11:56:00.157Z,79
2018-09-26T11:57:05.113Z,62
2018-09-26T11:58:11.035Z,62
2018-09-26T11:59:16.518Z,79
2018-09-26T12:00:21.688Z,79
2018-09-26T12:01:42.060Z,79
2018-09-26T12:02:47.190Z,79
2018-09-26T12:03:53.284Z,79
2018-09-26T12:04:58.445Z,79
2018-09-26T12:06:03.111Z,95
2018-09-26T12:07:08.793Z,95
2018-09-26T12:08:14.375Z,79
2018-09-26T12:09:19.709Z,79
2018-09-26T12:10:26.054Z,79
2018-09-26T12:11:31.011Z,62
2018-09-26T12:12:36.654Z,62
2018-09-26T12:13:41.917Z,62
2018-09-26T12:14:47.357Z,79
2018-09-26T12:15:53.355Z,79
2018-09-26T12:16:58.558Z,62
2018-09-26T12:18:03.180Z,62
2018-09-26T12:19:08.614Z,62
2018-09-26T12:20:14.252Z,62
2018-09-26T12:21:32.955Z,79
2018-09-26T12:22:38.087Z,79
2018-09-26T12:23:43.983Z,79
2018-09-26T12:24:49.923Z,95
2018-09-26T12:25:54.843Z,95
2018-09-26T12:27:00.073Z,95
2018-09-26T12:28:05.576Z,95
2018-09-26T12:29:10.391Z,68
2018-09-26T12:30:16.112Z,68
2018-09-26T12:31:21.552Z,68
2018-09-26T12:32:26.991Z,95
2018-09-26T12:33:32.640Z,79
2018-09-26T12:34:38.101Z,72
2018-09-26T12:35:43.822Z,62
2018-09-26T12:36:49.274Z,79
2018-09-26T12:37:54.708Z,79
2018-09-26T12:38:59.663Z,79
2018-09-26T12:40:05.174Z,95
2018-09-26T12:41:10.682Z,79
2018-09-26T12:42:16.231Z,95
2018-09-26T12:43:21.871Z,79
2018-09-26T12:44:27.334Z,79
2018-09-26T12:45:33.063Z,79
2018-09-26T12:46:38.235Z,79
2018-09-26T12:47:43.696Z,79
2018-09-26T12:48:49.123Z,79
2018-09-26T12:49:54.654Z,88
2018-09-26T12:50:59.798Z,88
2018-09-26T12:52:05.640Z,72
2018-09-26T12:53:10.900Z,72
2018-09-26T12:54:16.049Z,72
2018-09-26T12:55:21.450Z,62
2018-09-26T12:56:26.906Z,72
2018-09-26T12:57:31.479Z,72
2018-09-26T12:58:36.765Z,72
2018-09-26T12:59:41.342Z,72
2018-09-26T13:00:47.497Z,72
2018-09-26T13:01:53.298Z,72
2018-09-26T13:02:58.733Z,55
2018-09-26T13:04:03.634Z,55
2018-09-26T13:05:09.166Z,55
2018-09-26T13:06:14.204Z,72
2018-09-26T13:07:19.869Z,55
2018-09-26T13:08:25.437Z,55
2018-09-26T13:09:31.772Z,55
2018-09-26T13:10:36.659Z,72
2018-09-26T13:11:42.219Z,62
2018-09-26T13:12:47.081Z,62
2018-09-26T13:13:51.953Z,79
2018-09-26T13:14:56.817Z,79
2018-09-26T13:16:01.953Z,79
2018-09-26T13:17:06.847Z,79
2018-09-26T13:18:12.493Z,79
2018-09-26T13:19:18.134Z,62
2018-09-26T13:20:23.607Z,62
2018-09-26T13:21:29.937Z,62
2018-09-26T13:22:34.841Z,62
2018-09-26T13:23:39.993Z,62
2018-09-26T13:24:45.677Z,62
2018-09-26T13:25:50.680Z,72
2018-09-26T13:26:55.840Z,72
2018-09-26T13:28:01.100Z,55
2018-09-26T13:29:05.996Z,55
2018-09-26T13:30:11.421Z,72
2018-09-26T13:31:16.646Z,72
2018-09-26T13:32:21.067Z,62
2018-09-26T13:33:26.814Z,62
2018-09-26T13:34:32.301Z,62
2018-09-26T13:35:37.535Z,62
2018-09-26T13:36:43.215Z,62
2018-09-26T13:37:48.673Z,62
2018-09-26T13:38:54.479Z,72
2018-09-26T13:40:00.295Z,72
2018-09-26T13:41:05.551Z,72
2018-09-26T13:42:10.237Z,72
2018-09-26T13:43:15.445Z,72
2018-09-26T13:44:20.906Z,72
2018-09-26T13:45:41.888Z,62
2018-09-26T13:46:47.500Z,62
2018-09-26T13:47:52.728Z,62
2018-09-26T13:48:57.843Z,62
2018-09-26T13:50:02.765Z,62
2018-09-26T13:51:06.873Z,72
2018-09-26T13:52:12.797Z,72
2018-09-26T13:53:18.401Z,62
2018-09-26T13:54:23.420Z,72
2018-09-26T13:55:30.015Z,79
2018-09-26T13:56:35.290Z,79
2018-09-26T13:57:40.875Z,95
2018-09-26T13:58:46.304Z,95
2018-09-26T13:59:51.467Z,95
2018-09-26T14:00:56.898Z,95
2018-09-26T14:02:02.114Z,95
2018-09-26T14:03:07.110Z,95
2018-09-26T14:04:12.643Z,68
2018-09-26T14:05:17.854Z,95
2018-09-26T14:06:22.972Z,86
2018-09-26T14:07:28.516Z,95
2018-09-26T14:08:34.243Z,95
2018-09-26T14:09:40.272Z,95
2018-09-26T14:10:45.678Z,68
2018-09-26T14:11:51.300Z,95
2018-09-26T14:12:57.117Z,79
2018-09-26T14:14:01.971Z,62
2018-09-26T14:15:07.200Z,79
2018-09-26T14:16:12.617Z,88
2018-09-26T14:17:18.015Z,79
2018-09-26T14:18:23.812Z,95
2018-09-26T14:19:29.896Z,79
2018-09-26T14:20:35.051Z,79
2018-09-26T14:21:40.464Z,79
2018-09-26T14:22:46.402Z,79
2018-09-26T14:23:51.765Z,79
2018-09-26T14:24:57.169Z,72
2018-09-26T14:26:01.755Z,72
2018-09-26T14:27:06.620Z,62
2018-09-26T14:28:12.209Z,62
2018-09-26T14:29:17.591Z,62
2018-09-26T14:30:23.981Z,79
2018-09-26T14:31:30.317Z,62
2018-09-26T14:32:35.635Z,79
2018-09-26T14:33:41.780Z,79
2018-09-26T14:34:47.176Z,62
2018-09-26T14:35:52.323Z,88
2018-09-26T14:36:57.865Z,62
2018-09-26T14:38:02.557Z,79
2018-09-26T14:39:07.309Z,79
2018-09-26T14:40:13.268Z,95
2018-09-26T14:41:18.348Z,68
2018-09-26T14:42:24.149Z,95
2018-09-26T14:43:44.536Z,95
2018-09-26T14:44:49.964Z,95
2018-09-26T14:45:56.006Z,86
2018-09-26T14:47:01.384Z,86
2018-09-26T14:48:06.576Z,86
2018-09-26T14:49:12.153Z,95
2018-09-26T14:50:17.751Z,79
2018-09-26T14:51:22.981Z,79
2018-09-26T14:52:28.732Z,86
2018-09-26T14:53:34.282Z,86
2018-09-26T14:54:39.612Z,103
2018-09-26T14:55:44.744Z,103
2018-09-26T14:56:50.000Z,119
2018-09-26T14:57:55.575Z,92
2018-09-26T14:59:00.847Z,110
2018-09-26T15:00:05.831Z,92
2018-09-26T15:01:10.988Z,110
2018-09-26T15:02:16.005Z,110
2018-09-26T15:03:21.381Z,127
2018-09-26T15:04:26.346Z,127
2018-09-26T15:05:31.655Z,110
2018-09-26T15:06:37.385Z,110
2018-09-26T15:07:42.275Z,143
2018-09-26T15:08:47.853Z,117
2018-09-26T15:09:53.798Z,117
2018-09-26T15:10:59.432Z,150
2018-09-26T15:12:05.503Z,150
2018-09-26T15:13:10.789Z,150
2018-09-26T15:14:15.792Z,127
2018-09-26T15:15:20.973Z,117
2018-09-26T15:16:26.777Z,127
2018-09-26T15:17:31.989Z,110
2018-09-26T15:18:37.876Z,134
2018-09-26T15:19:43.304Z,127
2018-09-26T15:20:48.829Z,119
2018-09-26T15:21:54.249Z,86
2018-09-26T15:22:59.423Z,92
2018-09-26T15:24:04.933Z,110
2018-09-26T15:25:10.174Z,127
2018-09-26T15:26:15.791Z,117
2018-09-26T15:27:20.769Z,117
2018-09-26T15:28:26.068Z,127
2018-09-26T15:29:31.672Z,127
2018-09-26T15:30:37.183Z,134
2018-09-26T15:31:42.528Z,150
2018-09-26T15:32:47.682Z,150
2018-09-26T15:33:53.387Z,150
2018-09-26T15:34:58.021Z,141
2018-09-26T15:36:03.176Z,141
2018-09-26T15:37:08.879Z,158
2018-09-26T15:38:14.247Z,174
2018-09-26T15:39:19.813Z,174
2018-09-26T15:40:25.596Z,165
2018-09-26T15:41:31.005Z,182
2018-09-26T15:42:36.544Z,182
2018-09-26T15:43:41.703Z,182
2018-09-26T15:44:47.136Z,191
2018-09-26T15:45:52.836Z,174
2018-09-26T15:46:57.463Z,158
2018-09-26T15:48:02.790Z,167
2018-09-26T15:49:08.031Z,167
2018-09-26T15:50:13.637Z,167